Time;durP1;ratioP1;P1;durP2;ratioP2;P2;SDS_P1;SDS_P2;PMS_P1;PMS_P2;Temp;Humidity;BMP_temperature;BMP_pressure;BME280_temperature;BME280_humidity;BME280_pressure;Samples;Min_cycle;Max_cycle;Signal;HPM_P1;HPM_P2
2021/12/02 00:02:31;;;;;;;0.20;0.20;;;7.00;99.90;;;;;;5025858;28;20230;-66
2021/12/02 00:05:16;;;;;;;0.10;0.10;;;7.00;99.90;;;;;;5026405;28;20285;-67
2021/12/02 00:08:01;;;;;;;0.23;0.23;;;7.10;99.90;;;;;;5023494;28;20214;-66
2021/12/02 00:10:45;;;;;;;0.00;0.00;;;7.10;99.90;;;;;;5026670;28;20202;-66
2021/12/02 00:13:36;;;;;;;0.20;0.20;;;7.10;99.90;;;;;;5025546;28;20271;-66
2021/12/02 00:22:12;;;;;;;0.00;0.00;;;7.00;99.90;;;;;;5029616;28;20202;-66
2021/12/02 00:25:01;;;;;;;0.10;0.10;;;6.80;99.90;;;;;;5027110;28;20226;-66
2021/12/02 00:27:46;;;;;;;0.30;0.20;;;6.90;99.90;;;;;;5029804;28;20199;-65
2021/12/02 00:30:32;;;;;;;0.10;0.10;;;6.80;99.90;;;;;;5026840;28;20246;-66
2021/12/02 00:33:17;;;;;;;0.57;0.00;;;6.80;99.90;;;;;;5027084;28;20203;-66
2021/12/02 00:36:02;;;;;;;0.17;0.17;;;6.80;99.90;;;;;;5029522;28;20199;-65
2021/12/02 00:38:47;;;;;;;0.63;0.40;;;6.80;99.90;;;;;;5026449;28;20220;-66
2021/12/02 00:41:34;;;;;;;0.30;0.30;;;6.90;99.90;;;;;;5027912;28;20225;-66
2021/12/02 00:44:19;;;;;;;0.10;0.10;;;6.90;99.90;;;;;;5027547;28;20307;-65
2021/12/02 00:47:07;;;;;;;0.23;0.17;;;6.90;99.90;;;;;;5026844;28;20282;-64
2021/12/02 00:49:51;;;;;;;0.20;0.20;;;6.90;99.90;;;;;;5030179;28;20285;-65
2021/12/02 00:52:39;;;;;;;0.13;0.10;;;7.00;99.90;;;;;;5028377;28;20202;-65
2021/12/02 00:55:26;;;;;;;0.00;0.00;;;7.00;99.90;;;;;;5026962;28;20195;-65
2021/12/02 00:58:12;;;;;;;0.00;0.00;;;7.00;99.90;;;;;;5029900;28;20686;-65
2021/12/02 01:00:57;;;;;;;0.00;0.00;;;7.00;99.90;;;;;;5026796;28;20279;-66
2021/12/02 01:03:43;;;;;;;0.20;0.20;;;7.00;99.90;;;;;;5027272;28;20278;-66
2021/12/02 01:06:27;;;;;;;0.20;0.10;;;6.90;99.90;;;;;;5029806;28;20206;-65
2021/12/02 01:09:12;;;;;;;0.00;0.00;;;6.90;99.90;;;;;;5026695;28;20203;-65
2021/12/02 01:11:58;;;;;;;0.00;0.00;;;6.90;99.90;;;;;;5028653;28;20191;-65
2021/12/02 01:14:43;;;;;;;0.00;0.00;;;6.90;99.90;;;;;;5028634;28;20239;-66
2021/12/02 01:17:28;;;;;;;0.00;0.00;;;6.90;99.90;;;;;;5025624;28;20273;-66
2021/12/02 01:20:13;;;;;;;0.23;0.20;;;6.70;99.90;;;;;;5028138;28;20199;-66
2021/12/02 01:22:59;;;;;;;0.07;0.07;;;6.70;99.90;;;;;;5027720;28;20195;-66
2021/12/02 01:25:50;;;;;;;0.00;0.00;;;6.60;99.90;;;;;;5005408;28;20234;-65
2021/12/02 01:28:36;;;;;;;0.00;0.00;;;6.50;99.90;;;;;;5030254;28;20193;-66
2021/12/02 01:31:22;;;;;;;0.23;0.23;;;6.40;99.90;;;;;;5028862;28;20195;-65
2021/12/02 01:34:07;;;;;;;0.10;0.10;;;6.20;99.90;;;;;;5045319;28;20205;-65
2021/12/02 01:36:53;;;;;;;0.00;0.00;;;6.20;99.90;;;;;;5048905;28;20202;-66
2021/12/02 01:39:38;;;;;;;0.10;0.10;;;6.10;99.90;;;;;;5046856;28;20198;-67
2021/12/02 01:42:24;;;;;;;0.87;0.30;;;6.10;99.90;;;;;;5047591;28;20198;-65
2021/12/02 01:45:15;;;;;;;0.10;0.10;;;6.20;99.90;;;;;;5046082;28;20269;-65
2021/12/02 01:48:09;;;;;;;0.10;0.10;;;6.20;99.90;;;;;;5043986;28;20202;-65
2021/12/02 01:51:03;;;;;;;0.10;0.10;;;6.10;99.90;;;;;;5047038;28;20299;-65
2021/12/02 01:53:50;;;;;;;0.27;0.27;;;5.90;99.90;;;;;;5046894;28;20190;-66
2021/12/02 01:56:45;;;;;;;0.20;0.20;;;5.80;99.90;;;;;;5045164;28;20198;-65
2021/12/02 01:59:35;;;;;;;0.10;0.10;;;5.70;99.90;;;;;;5048137;28;20218;-65
2021/12/02 02:02:20;;;;;;;0.00;0.00;;;5.70;99.90;;;;;;5047891;28;20233;-66
2021/12/02 02:05:11;;;;;;;0.10;0.10;;;5.80;99.90;;;;;;5045877;28;20214;-65
2021/12/02 02:08:20;;;;;;;0.10;0.10;;;5.70;99.90;;;;;;5048528;28;20244;-66
2021/12/02 02:11:04;;;;;;;0.30;0.30;;;5.60;99.90;;;;;;5047552;28;20202;-66
2021/12/02 02:13:49;;;;;;;0.23;0.23;;;5.60;99.90;;;;;;5045087;28;20237;-66
2021/12/02 02:16:33;;;;;;;0.20;0.20;;;5.70;99.90;;;;;;5048325;28;20647;-65
2021/12/02 02:19:18;;;;;;;0.00;0.00;;;5.70;99.90;;;;;;5044066;28;20193;-66
2021/12/02 02:22:02;;;;;;;0.10;0.10;;;5.70;99.90;;;;;;5044155;28;20221;-65
2021/12/02 02:24:48;;;;;;;0.00;0.00;;;5.70;99.90;;;;;;5048226;28;20229;-63
2021/12/02 02:27:32;;;;;;;5.43;0.37;;;5.60;99.90;;;;;;5045047;28;20202;-65
2021/12/02 02:30:17;;;;;;;1.80;0.20;;;5.60;99.90;;;;;;5046194;28;20197;-64
2021/12/02 02:33:01;;;;;;;0.10;0.10;;;5.60;99.90;;;;;;5047903;28;20225;-66
2021/12/02 02:35:46;;;;;;;2.03;0.47;;;5.50;99.90;;;;;;5044384;28;20221;-65
2021/12/02 02:38:31;;;;;;;0.30;0.30;;;5.50;99.90;;;;;;5047866;28;20209;-64
2021/12/02 02:41:20;;;;;;;0.10;0.10;;;5.50;99.90;;;;;;5046604;28;20198;-65
2021/12/02 02:44:05;;;;;;;0.37;0.10;;;5.50;99.90;;;;;;5044655;28;20279;-65
2021/12/02 02:46:50;;;;;;;0.10;0.10;;;5.50;99.90;;;;;;5048576;28;20270;-67
2021/12/02 02:49:34;;;;;;;0.10;0.10;;;5.40;99.90;;;;;;5045589;28;20222;-65
2021/12/02 02:52:20;;;;;;;0.20;0.20;;;5.30;99.90;;;;;;5044941;28;20210;-65
2021/12/02 02:55:04;;;;;;;0.10;0.10;;;5.20;99.90;;;;;;5048170;28;20285;-65
2021/12/02 03:06:55;;;;;;;0.30;0.20;;;5.30;99.90;;;;;;5046160;28;20194;-65
2021/12/02 03:17:54;;;;;;;0.53;0.10;;;5.40;99.90;;;;;;5047638;28;20217;-66
2021/12/02 03:20:38;;;;;;;1.33;0.10;;;5.40;99.90;;;;;;5046122;28;20209;-64
2021/12/02 03:23:23;;;;;;;0.10;0.10;;;5.40;99.90;;;;;;5042571;28;20185;-65
2021/12/02 03:26:08;;;;;;;0.10;0.10;;;5.40;99.90;;;;;;5045048;28;20218;-66
2021/12/02 03:28:53;;;;;;;0.17;0.17;;;5.40;99.90;;;;;;5043748;28;20210;-66
2021/12/02 03:31:37;;;;;;;1.00;0.57;;;5.40;99.90;;;;;;5043491;28;20256;-65
2021/12/02 03:34:22;;;;;;;3.20;0.33;;;5.40;99.90;;;;;;5047880;28;20202;-64
2021/12/02 03:37:08;;;;;;;0.13;0.13;;;5.40;99.90;;;;;;5044220;28;20289;-66
2021/12/02 03:39:52;;;;;;;0.07;0.07;;;5.40;99.90;;;;;;5046084;28;20198;-65
2021/12/02 03:42:36;;;;;;;0.17;0.17;;;5.40;99.90;;;;;;5046770;28;20198;-66
2021/12/02 03:45:25;;;;;;;0.00;0.00;;;5.50;99.90;;;;;;5043837;28;20217;-64
2021/12/02 03:48:09;;;;;;;0.53;0.50;;;5.40;99.90;;;;;;5045787;28;20206;-64
2021/12/02 03:50:53;;;;;;;0.40;0.40;;;5.40;99.90;;;;;;5045707;28;20234;-65
2021/12/02 03:53:38;;;;;;;0.10;0.10;;;5.40;99.90;;;;;;5043843;28;20194;-65
2021/12/02 03:56:22;;;;;;;0.20;0.20;;;5.40;99.90;;;;;;5048483;28;20268;-64
2021/12/02 03:59:07;;;;;;;0.30;0.30;;;5.30;99.90;;;;;;5049079;28;20228;-65
2021/12/02 04:01:51;;;;;;;0.10;0.10;;;5.30;99.90;;;;;;5048731;28;20261;-65
2021/12/02 04:04:36;;;;;;;0.57;0.20;;;5.30;99.90;;;;;;5051451;28;20221;-65
2021/12/02 04:07:24;;;;;;;0.23;0.23;;;5.30;99.90;;;;;;5047946;28;20198;-64
2021/12/02 04:10:09;;;;;;;0.20;0.20;;;5.30;99.90;;;;;;5049345;28;20198;-65
2021/12/02 04:15:54;;;;;;;0.30;0.30;;;5.20;99.90;;;;;;5049066;28;20198;-65
2021/12/02 04:18:38;;;;;;;0.67;0.10;;;5.30;99.90;;;;;;5049396;28;20202;-64
2021/12/02 04:21:23;;;;;;;0.13;0.13;;;5.20;99.90;;;;;;5049613;28;20202;-64
2021/12/02 04:24:07;;;;;;;0.20;0.20;;;5.20;99.90;;;;;;5047077;28;20226;-65
2021/12/02 04:26:52;;;;;;;0.30;0.13;;;5.10;99.90;;;;;;5049923;28;20194;-65
2021/12/02 04:29:39;;;;;;;0.10;0.10;;;5.10;99.90;;;;;;5048626;28;20206;-67
2021/12/02 04:32:24;;;;;;;0.10;0.10;;;5.10;99.90;;;;;;5047865;28;20203;-65
2021/12/02 04:35:12;;;;;;;0.13;0.13;;;4.90;99.90;;;;;;5050469;28;20293;-65
2021/12/02 04:37:56;;;;;;;2.27;0.47;;;4.80;99.90;;;;;;5047944;28;20210;-67
2021/12/02 04:40:41;;;;;;;0.10;0.10;;;4.80;99.90;;;;;;5048547;28;20191;-66
2021/12/02 04:43:26;;;;;;;0.10;0.10;;;4.80;99.90;;;;;;5050032;28;20190;-67
2021/12/02 04:46:10;;;;;;;0.20;0.20;;;4.80;99.90;;;;;;5047008;28;20225;-65
2021/12/02 04:48:54;;;;;;;0.30;0.20;;;4.80;99.90;;;;;;5049706;28;20221;-65
2021/12/02 04:51:39;;;;;;;0.33;0.33;;;4.90;99.90;;;;;;5049631;28;20214;-66
2021/12/02 04:54:24;;;;;;;0.23;0.23;;;4.90;99.90;;;;;;5046699;28;20229;-65
2021/12/02 04:57:08;;;;;;;0.20;0.20;;;4.90;99.90;;;;;;5031740;28;20626;-66
2021/12/02 04:59:52;;;;;;;0.10;0.10;;;4.90;99.90;;;;;;5012409;28;20274;-66
2021/12/02 05:02:39;;;;;;;0.10;0.10;;;4.90;99.90;;;;;;5026541;28;20191;-66
2021/12/02 05:05:26;;;;;;;0.30;0.30;;;5.00;99.90;;;;;;5027767;28;20237;-65
2021/12/02 05:08:11;;;;;;;0.20;0.20;;;5.10;99.90;;;;;;5019173;28;20198;-66
2021/12/02 05:10:55;;;;;;;0.40;0.23;;;5.10;99.90;;;;;;5024887;28;20261;-65
2021/12/02 05:13:40;;;;;;;0.17;0.17;;;5.10;99.90;;;;;;5027681;28;20198;-65
2021/12/02 05:16:25;;;;;;;0.20;0.20;;;5.20;99.90;;;;;;5026559;28;20198;-66
2021/12/02 05:19:10;;;;;;;0.20;0.20;;;5.20;99.90;;;;;;5009888;28;20286;-65
2021/12/02 05:21:54;;;;;;;0.10;0.10;;;5.20;99.90;;;;;;5028451;28;20203;-66
2021/12/02 05:24:38;;;;;;;0.13;0.10;;;5.20;99.90;;;;;;5026570;28;21062;-66
2021/12/02 05:27:23;;;;;;;0.00;0.00;;;5.20;99.90;;;;;;5022949;28;20187;-66
2021/12/02 05:30:08;;;;;;;0.00;0.00;;;5.20;99.90;;;;;;5027123;28;20206;-67
2021/12/02 05:32:56;;;;;;;0.40;0.40;;;5.20;99.90;;;;;;5028443;28;20210;-65
2021/12/02 05:35:41;;;;;;;0.17;0.17;;;5.30;99.90;;;;;;5029796;28;20203;-66
2021/12/02 05:38:25;;;;;;;0.27;0.27;;;5.30;99.90;;;;;;5026583;28;20198;-64
2021/12/02 05:41:14;;;;;;;0.10;0.10;;;5.30;99.90;;;;;;5028346;28;20308;-65
2021/12/02 05:44:01;;;;;;;0.30;0.30;;;5.30;99.90;;;;;;5024114;28;20191;-64
2021/12/02 05:46:45;;;;;;;0.10;0.10;;;5.30;99.90;;;;;;5022365;28;20195;-65
2021/12/02 05:49:29;;;;;;;0.30;0.30;;;5.40;99.90;;;;;;5028460;28;20226;-65
2021/12/02 05:52:13;;;;;;;0.40;0.40;;;5.40;99.90;;;;;;5026841;28;20195;-65
2021/12/02 05:54:58;;;;;;;0.03;0.03;;;5.30;99.90;;;;;;5026583;28;20199;-66
2021/12/02 05:57:43;;;;;;;0.20;0.20;;;5.30;99.90;;;;;;5029047;28;20195;-65
2021/12/02 06:00:27;;;;;;;2.80;0.30;;;5.20;99.90;;;;;;5023277;28;20199;-66
2021/12/02 06:03:12;;;;;;;0.40;0.37;;;5.10;99.90;;;;;;5025017;28;20195;-65
2021/12/02 06:05:57;;;;;;;0.87;0.17;;;5.10;99.90;;;;;;5027209;28;20227;-66
2021/12/02 06:08:41;;;;;;;0.33;0.33;;;5.20;99.90;;;;;;5025939;28;20274;-65
2021/12/02 06:11:28;;;;;;;0.07;0.07;;;5.20;99.90;;;;;;5025967;28;20207;-65
2021/12/02 06:14:15;;;;;;;0.20;0.20;;;5.20;99.90;;;;;;5026580;28;20207;-64
2021/12/02 06:17:02;;;;;;;0.20;0.20;;;5.20;99.90;;;;;;5023700;28;20198;-66
2021/12/02 06:19:47;;;;;;;0.20;0.20;;;5.30;99.90;;;;;;5027010;28;20680;-65
2021/12/02 06:22:32;;;;;;;0.17;0.17;;;5.30;99.90;;;;;;5026933;28;20238;-67
2021/12/02 06:25:44;;;;;;;0.20;0.20;;;5.30;99.90;;;;;;5025875;28;20222;-66
2021/12/02 06:28:21;;;;;;;0.27;0.27;;;5.30;99.90;;;;;;5028349;28;20203;-64
2021/12/02 06:31:06;;;;;;;0.20;0.20;;;5.30;99.90;;;;;;5025562;28;20194;-65
2021/12/02 06:33:51;;;;;;;0.10;0.10;;;5.30;99.90;;;;;;5023508;28;20187;-66
2021/12/02 06:36:37;;;;;;;0.10;0.10;;;5.30;99.90;;;;;;5024530;28;20202;-66
2021/12/02 06:39:21;;;;;;;0.27;0.27;;;5.30;99.90;;;;;;5022550;28;20199;-65
2021/12/02 06:42:06;;;;;;;0.80;0.27;;;5.30;99.90;;;;;;5025000;28;20191;-65
2021/12/02 06:44:50;;;;;;;0.70;0.27;;;5.20;99.90;;;;;;5023220;28;20295;-66
2021/12/02 06:47:38;;;;;;;0.20;0.20;;;5.20;99.90;;;;;;5024077;28;20195;-64
2021/12/02 06:50:23;;;;;;;0.60;0.60;;;5.20;99.90;;;;;;5025698;28;20231;-64
2021/12/02 06:53:07;;;;;;;0.20;0.20;;;5.30;99.90;;;;;;5022317;28;20207;-65
2021/12/02 06:55:51;;;;;;;0.10;0.10;;;5.20;99.90;;;;;;5024285;28;20254;-66
2021/12/02 06:58:36;;;;;;;0.40;0.40;;;5.20;99.90;;;;;;5026908;28;20212;-63
2021/12/02 07:01:21;;;;;;;0.53;0.37;;;5.10;99.90;;;;;;5017857;28;20190;-64
2021/12/02 07:04:07;;;;;;;0.30;0.30;;;5.10;99.90;;;;;;5021490;28;20762;-65
2021/12/02 07:06:52;;;;;;;0.23;0.23;;;5.10;99.90;;;;;;5027671;28;20223;-65
2021/12/02 07:09:37;;;;;;;0.47;0.47;;;5.10;99.90;;;;;;5023836;28;20214;-65
2021/12/02 07:12:29;;;;;;;0.10;0.10;;;5.10;99.90;;;;;;5025253;28;20246;-65
2021/12/02 07:15:18;;;;;;;0.20;0.20;;;5.10;99.90;;;;;;5021725;28;20203;-66
2021/12/02 07:18:11;;;;;;;0.50;0.50;;;5.10;99.90;;;;;;5021813;28;20198;-65
2021/12/02 07:20:56;;;;;;;0.60;0.60;;;5.00;99.90;;;;;;5023826;28;20210;-67
2021/12/02 07:23:40;;;;;;;0.73;0.60;;;5.10;99.90;;;;;;5020648;28;20198;-67
2021/12/02 07:26:25;;;;;;;1.03;1.03;;;5.10;99.90;;;;;;5022904;28;20280;-66
2021/12/02 07:29:11;;;;;;;0.43;0.43;;;5.10;99.90;;;;;;5023943;28;20226;-66
2021/12/02 07:31:56;;;;;;;0.37;0.37;;;5.00;99.90;;;;;;5024271;28;20261;-65
2021/12/02 07:34:44;;;;;;;0.40;0.20;;;5.10;99.90;;;;;;5020048;28;20222;-65
2021/12/02 07:37:29;;;;;;;0.20;0.20;;;5.10;99.90;;;;;;5023823;28;20258;-64
2021/12/02 07:40:15;;;;;;;0.37;0.30;;;5.10;99.90;;;;;;5023788;28;20273;-66
2021/12/02 07:43:00;;;;;;;0.60;0.60;;;5.10;99.90;;;;;;5020864;28;20279;-65
2021/12/02 07:45:45;;;;;;;0.30;0.30;;;5.10;99.90;;;;;;5025730;28;20230;-66
2021/12/02 07:48:29;;;;;;;0.50;0.50;;;5.10;99.90;;;;;;5023320;28;20262;-65
2021/12/02 07:51:16;;;;;;;0.33;0.33;;;5.20;99.90;;;;;;5024438;28;20214;-64
2021/12/02 07:54:02;;;;;;;1.03;0.40;;;5.10;99.90;;;;;;5022043;28;20210;-64
2021/12/02 07:56:47;;;;;;;0.30;0.30;;;5.10;99.90;;;;;;5023174;28;20206;-66
2021/12/02 07:59:33;;;;;;;0.50;0.50;;;5.10;99.90;;;;;;5024805;28;20195;-61
2021/12/02 08:02:17;;;;;;;0.40;0.40;;;5.20;99.90;;;;;;5024199;28;20195;-52
2021/12/02 08:05:03;;;;;;;0.27;0.20;;;5.10;99.90;;;;;;5018999;28;20277;-61
2021/12/02 08:07:52;;;;;;;0.53;0.53;;;5.10;99.90;;;;;;5024824;28;20207;-50
2021/12/02 08:10:38;;;;;;;0.20;0.20;;;5.10;99.90;;;;;;5023431;28;20313;-60
2021/12/02 08:13:30;;;;;;;0.53;0.40;;;5.20;99.90;;;;;;5019511;28;20203;-51
2021/12/02 08:16:14;;;;;;;0.10;0.10;;;5.20;99.90;;;;;;5025605;28;20214;-60
2021/12/02 08:19:01;;;;;;;0.67;0.30;;;5.10;99.90;;;;;;5022217;28;20290;-58
2021/12/02 08:21:45;;;;;;;0.20;0.20;;;5.10;99.90;;;;;;5023703;28;20214;-55
2021/12/02 08:24:30;;;;;;;0.40;0.40;;;5.00;99.90;;;;;;5020730;28;20234;-61
2021/12/02 08:27:14;;;;;;;0.10;0.10;;;5.00;99.90;;;;;;5022818;28;20241;-55
2021/12/02 08:30:02;;;;;;;0.00;0.00;;;4.90;99.90;;;;;;5024220;28;20211;-59
2021/12/02 08:32:47;;;;;;;0.30;0.23;;;5.00;99.90;;;;;;5023080;28;20275;-56
2021/12/02 08:35:34;;;;;;;0.10;0.10;;;5.00;99.90;;;;;;5022408;28;20261;-60
2021/12/02 08:38:22;;;;;;;0.50;0.30;;;5.10;99.90;;;;;;5024692;28;20203;-57
2021/12/02 08:41:07;;;;;;;0.20;0.20;;;5.10;99.90;;;;;;5023429;28;20202;-55
2021/12/02 08:43:53;;;;;;;0.10;0.10;;;5.10;99.90;;;;;;5023106;28;20207;-53
2021/12/02 08:46:37;;;;;;;0.20;0.20;;;5.10;99.90;;;;;;5029162;28;20264;-57
2021/12/02 08:49:23;;;;;;;0.83;0.37;;;5.20;99.90;;;;;;5024970;28;20235;-55
2021/12/02 08:52:07;;;;;;;0.20;0.20;;;5.30;99.90;;;;;;5027322;28;20281;-56
2021/12/02 08:54:53;;;;;;;0.20;0.20;;;5.30;99.90;;;;;;5024620;28;20313;-55
2021/12/02 08:57:37;;;;;;;0.00;0.00;;;5.30;99.90;;;;;;5023416;28;20214;-55
2021/12/02 09:00:27;;;;;;;0.00;0.00;;;5.30;99.90;;;;;;5027606;28;20206;-48
2021/12/02 09:03:14;;;;;;;0.73;0.50;;;5.50;99.90;;;;;;5023914;28;20210;-57
2021/12/02 09:06:00;;;;;;;0.13;0.13;;;5.40;99.90;;;;;;5026157;28;20226;-55
2021/12/02 09:08:44;;;;;;;0.30;0.30;;;5.40;99.90;;;;;;5028493;28;20221;-52
2021/12/02 09:11:31;;;;;;;0.30;0.30;;;5.40;99.90;;;;;;5027045;28;20206;-51
2021/12/02 09:14:15;;;;;;;0.20;0.20;;;5.50;99.90;;;;;;5023098;28;20253;-53
2021/12/02 09:16:59;;;;;;;0.10;0.10;;;5.60;99.90;;;;;;5028441;28;20305;-52
2021/12/02 09:19:44;;;;;;;0.43;0.30;;;5.70;99.90;;;;;;5025344;28;20195;-59
2021/12/02 09:22:28;;;;;;;0.37;0.37;;;5.70;99.90;;;;;;5026920;28;20665;-58
2021/12/02 09:25:16;;;;;;;1.50;0.30;;;5.80;99.90;;;;;;5024854;28;20235;-45
2021/12/02 09:28:00;;;;;;;0.10;0.10;;;5.70;99.90;;;;;;5024733;28;20277;-56
2021/12/02 09:30:46;;;;;;;0.10;0.10;;;5.60;99.90;;;;;;5039051;28;20222;-55
2021/12/02 09:33:30;;;;;;;0.20;0.20;;;5.60;99.90;;;;;;5023298;28;20281;-61
2021/12/02 09:36:16;;;;;;;0.30;0.30;;;5.70;99.90;;;;;;5024951;28;20199;-52
2021/12/02 09:39:05;;;;;;;0.17;0.17;;;5.70;99.90;;;;;;5026493;28;20203;-49
2021/12/02 09:41:49;;;;;;;0.20;0.20;;;5.80;99.90;;;;;;5024439;28;20203;-52
2021/12/02 09:44:33;;;;;;;0.30;0.30;;;5.90;99.90;;;;;;5019283;28;20246;-60
2021/12/02 09:47:19;;;;;;;0.20;0.20;;;6.00;99.90;;;;;;5026147;28;20201;-54
2021/12/02 09:50:10;;;;;;;1.10;0.90;;;6.00;99.90;;;;;;5024785;28;20250;-57
2021/12/02 09:53:00;;;;;;;0.30;0.30;;;5.70;99.90;;;;;;5023298;28;20202;-48
2021/12/02 09:58:29;;;;;;;0.70;0.70;;;6.00;99.90;;;;;;5025446;28;20203;-57
2021/12/02 10:01:18;;;;;;;0.30;0.30;;;5.80;99.90;;;;;;5025491;28;20299;-48
2021/12/02 10:04:04;;;;;;;0.40;0.40;;;5.70;99.90;;;;;;5023405;28;20199;-58
2021/12/02 10:06:49;;;;;;;1.27;0.50;;;5.70;99.90;;;;;;5024499;28;20202;-61
2021/12/02 10:09:49;;;;;;;0.33;0.33;;;5.60;99.90;;;;;;5026164;28;20202;-50
2021/12/02 10:12:37;;;;;;;0.63;0.20;;;5.60;99.90;;;;;;5025845;28;20190;-57
2021/12/02 10:15:21;;;;;;;0.77;0.23;;;5.60;99.90;;;;;;5022544;28;20270;-56
2021/12/02 10:18:14;;;;;;;1.30;0.67;;;5.70;99.90;;;;;;5026375;28;20198;-58
2021/12/02 10:21:16;;;;;;;3.20;0.60;;;5.90;99.90;;;;;;5037254;28;20253;-60
2021/12/02 10:24:04;;;;;;;0.50;0.50;;;6.10;99.90;;;;;;5020074;28;20199;-56
2021/12/02 10:26:52;;;;;;;0.40;0.40;;;6.20;99.90;;;;;;5026033;28;20252;-57
2021/12/02 10:29:38;;;;;;;1.43;0.40;;;6.10;99.90;;;;;;5025609;28;20241;-61
2021/12/02 10:32:25;;;;;;;0.43;0.30;;;6.00;99.90;;;;;;5024973;28;20241;-48
2021/12/02 10:35:13;;;;;;;0.97;0.30;;;5.90;99.90;;;;;;5024954;28;20210;-49
2021/12/02 10:37:57;;;;;;;0.40;0.37;;;6.00;99.90;;;;;;5022936;28;20289;-48
2021/12/02 10:40:55;;;;;;;0.60;0.60;;;6.10;99.90;;;;;;5025517;28;20199;-55
2021/12/02 10:44:11;;;;;;;0.40;0.40;;;5.80;99.90;;;;;;5022613;28;20199;-54
2021/12/02 10:46:57;;;;;;;0.50;0.50;;;5.50;99.90;;;;;;5022662;28;20265;-49
2021/12/02 10:49:48;;;;;;;0.63;0.43;;;5.40;99.90;;;;;;5024853;28;20713;-56
2021/12/02 10:52:34;;;;;;;0.23;0.23;;;5.30;99.90;;;;;;5026139;28;20207;-49
2021/12/02 10:55:23;;;;;;;0.50;0.50;;;5.30;99.90;;;;;;5020890;28;20195;-52
2021/12/02 10:58:07;;;;;;;0.73;0.73;;;5.40;99.90;;;;;;5023643;28;20186;-53
2021/12/02 11:00:52;;;;;;;0.67;0.23;;;5.40;99.90;;;;;;5024173;28;20190;-53
2021/12/02 11:03:36;;;;;;;0.50;0.50;;;5.40;99.90;;;;;;5020924;28;20207;-57
2021/12/02 11:06:40;;;;;;;0.93;0.80;;;5.60;99.90;;;;;;5025677;28;20210;-48
2021/12/02 11:09:31;;;;;;;0.40;0.40;;;5.80;99.90;;;;;;5025910;28;20202;-53
2021/12/02 11:12:24;;;;;;;1.07;0.53;;;5.90;99.90;;;;;;5023183;28;20214;-47
2021/12/02 11:15:19;;;;;;;0.50;0.50;;;6.10;99.90;;;;;;5022059;28;20198;-56
2021/12/02 11:18:07;;;;;;;0.40;0.40;;;6.20;99.90;;;;;;5026737;28;20203;-55
2021/12/02 11:20:59;;;;;;;0.73;0.33;;;6.30;99.90;;;;;;5023541;28;20198;-61
2021/12/02 11:23:47;;;;;;;0.20;0.20;;;6.40;99.90;;;;;;5021459;28;20203;-58
2021/12/02 11:26:31;;;;;;;5.20;0.67;;;6.40;99.90;;;;;;5026883;28;20202;-59
2021/12/02 11:29:16;;;;;;;0.17;0.10;;;6.40;99.90;;;;;;5024465;28;20202;-58
2021/12/02 11:32:00;;;;;;;0.33;0.33;;;6.50;99.90;;;;;;5026891;28;20190;-50
2021/12/02 11:34:45;;;;;;;1.17;0.53;;;6.40;99.90;;;;;;5026474;28;20242;-48
2021/12/02 11:37:29;;;;;;;0.83;0.60;;;6.50;99.90;;;;;;5024384;28;20187;-53
2021/12/02 11:40:20;;;;;;;0.40;0.40;;;6.60;99.90;;;;;;5027384;28;20249;-58
2021/12/02 11:43:07;;;;;;;0.30;0.30;;;6.60;99.90;;;;;;5025949;28;20191;-50
2021/12/02 11:45:54;;;;;;;0.30;0.30;;;6.50;99.90;;;;;;5025309;28;20230;-60
2021/12/02 11:48:42;;;;;;;0.30;0.10;;;6.60;99.90;;;;;;5027544;28;20198;-50
2021/12/02 11:51:26;;;;;;;0.10;0.10;;;6.60;99.90;;;;;;5025533;28;20270;-57
2021/12/02 11:54:11;;;;;;;1.03;0.30;;;6.70;99.90;;;;;;5039455;28;20638;-59
2021/12/02 11:56:56;;;;;;;0.87;0.10;;;6.80;99.90;;;;;;5026927;28;20228;-59
2021/12/02 11:59:41;;;;;;;0.20;0.20;;;6.80;99.90;;;;;;5024532;28;20544;-59
2021/12/02 12:02:26;;;;;;;0.10;0.10;;;7.10;99.90;;;;;;5026678;28;20238;-50
2021/12/02 12:05:11;;;;;;;1.17;0.20;;;7.20;99.90;;;;;;5026059;28;20262;-55
2021/12/02 12:07:56;;;;;;;0.77;0.70;;;7.30;99.90;;;;;;5024877;28;20302;-48
2021/12/02 12:10:41;;;;;;;0.30;0.30;;;7.30;99.90;;;;;;5027299;28;20257;-47
2021/12/02 12:13:26;;;;;;;0.23;0.20;;;7.30;99.90;;;;;;5025461;28;20202;-59
2021/12/02 12:16:30;;;;;;;0.20;0.20;;;7.30;99.90;;;;;;5025392;28;20219;-51
2021/12/02 12:19:45;;;;;;;0.73;0.20;;;7.20;99.90;;;;;;5031438;28;20206;-53
2021/12/02 12:22:33;;;;;;;0.00;0.00;;;7.30;99.90;;;;;;5030125;28;20314;-61
2021/12/02 12:25:29;;;;;;;0.30;0.30;;;7.20;99.90;;;;;;5029055;28;20374;-51
2021/12/02 12:28:14;;;;;;;1.90;0.30;;;7.30;99.90;;;;;;5030432;28;20202;-49
2021/12/02 12:31:06;;;;;;;0.10;0.10;;;7.40;99.90;;;;;;5030766;28;20282;-55
2021/12/02 12:33:51;;;;;;;0.20;0.20;;;7.40;99.90;;;;;;5028382;28;20190;-56
2021/12/02 12:36:45;;;;;;;0.27;0.27;;;7.30;99.90;;;;;;5030682;28;20203;-57
2021/12/02 12:39:33;;;;;;;0.20;0.20;;;7.20;99.90;;;;;;5029148;28;20195;-53
2021/12/02 12:42:18;;;;;;;0.00;0.00;;;7.00;99.90;;;;;;5029538;28;20265;-50
2021/12/02 12:45:06;;;;;;;0.00;0.00;;;6.10;99.90;;;;;;5030441;28;20214;-55
2021/12/02 12:47:58;;;;;;;0.00;0.00;;;5.50;99.90;;;;;;5028823;28;20199;-55
2021/12/02 12:50:44;;;;;;;0.10;0.10;;;5.30;99.90;;;;;;5028930;28;20246;-49
2021/12/02 12:53:31;;;;;;;2.33;0.63;;;5.00;99.90;;;;;;5030005;28;20195;-59
2021/12/02 12:56:18;;;;;;;0.00;0.00;;;4.80;99.90;;;;;;5028430;28;20241;-53
2021/12/02 12:59:09;;;;;;;0.00;0.00;;;4.80;99.90;;;;;;5028142;28;20194;-60
2021/12/02 13:01:59;;;;;;;0.00;0.00;;;4.60;99.90;;;;;;5029866;28;20278;-59
2021/12/02 13:04:52;;;;;;;0.87;0.10;;;4.50;99.90;;;;;;5026854;28;20303;-53
2021/12/02 13:07:40;;;;;;;0.00;0.00;;;4.30;99.90;;;;;;5028649;28;20203;-56
2021/12/02 13:10:29;;;;;;;0.17;0.17;;;4.40;99.90;;;;;;5029381;28;20241;-55
2021/12/02 13:13:24;;;;;;;0.20;0.20;;;4.40;99.90;;;;;;5027098;28;20219;-52
2021/12/02 13:16:21;;;;;;;0.00;0.00;;;4.50;99.90;;;;;;5028744;28;20313;-46
2021/12/02 13:19:15;;;;;;;0.10;0.10;;;4.30;99.90;;;;;;5028358;28;20283;-57
2021/12/02 13:22:01;;;;;;;0.23;0.00;;;4.40;99.90;;;;;;5027048;28;20198;-58
2021/12/02 13:24:46;;;;;;;0.10;0.10;;;4.40;99.90;;;;;;5028792;28;20223;-57
2021/12/02 13:27:30;;;;;;;0.00;0.00;;;4.40;99.90;;;;;;5028095;28;20414;-55
2021/12/02 13:30:14;;;;;;;0.10;0.10;;;4.40;99.90;;;;;;5027713;28;20206;-55
2021/12/02 13:33:01;;;;;;;0.10;0.10;;;4.40;99.90;;;;;;5030333;28;20207;-54
2021/12/02 13:35:45;;;;;;;0.00;0.00;;;4.40;99.90;;;;;;5025568;28;20375;-61
2021/12/02 13:38:30;;;;;;;0.00;0.00;;;4.40;99.90;;;;;;5007482;28;20196;-50
2021/12/02 13:41:18;;;;;;;0.00;0.00;;;4.40;99.90;;;;;;5020122;28;20211;-50
2021/12/02 13:44:06;;;;;;;0.00;0.00;;;4.50;99.90;;;;;;5018002;28;20233;-57
2021/12/02 13:47:01;;;;;;;0.10;0.10;;;4.50;99.90;;;;;;5024491;28;20247;-57
2021/12/02 13:49:49;;;;;;;0.00;0.00;;;4.50;99.90;;;;;;5016310;28;20271;-51
2021/12/02 13:55:26;;;;;;;0.00;0.00;;;4.30;99.90;;;;;;5026668;28;20211;-47
2021/12/02 14:01:00;;;;;;;0.00;0.00;;;4.10;99.90;;;;;;5023290;28;20191;-59
2021/12/02 14:03:45;;;;;;;0.10;0.10;;;4.10;99.90;;;;;;5026196;28;20252;-55
2021/12/02 14:06:30;;;;;;;0.10;0.10;;;4.00;99.90;;;;;;5024814;28;20207;-52
2021/12/02 14:09:17;;;;;;;0.30;0.30;;;3.90;99.90;;;;;;5018788;28;20583;-56
2021/12/02 14:12:07;;;;;;;0.20;0.13;;;4.00;99.90;;;;;;5027759;28;20191;-50
2021/12/02 14:15:04;;;;;;;0.20;0.20;;;4.00;99.90;;;;;;5024142;28;20194;-56
2021/12/02 14:17:50;;;;;;;0.10;0.10;;;3.90;99.90;;;;;;5026153;28;20195;-54
2021/12/02 14:20:34;;;;;;;0.00;0.00;;;3.90;99.90;;;;;;5025800;28;20932;-51
2021/12/02 14:23:41;;;;;;;0.13;0.13;;;3.90;99.90;;;;;;5026265;28;20195;-49
2021/12/02 14:26:29;;;;;;;0.10;0.10;;;3.90;99.90;;;;;;5019087;28;20285;-49
2021/12/02 14:29:14;;;;;;;0.00;0.00;;;3.90;99.90;;;;;;5026541;28;20277;-49
2021/12/02 14:32:09;;;;;;;0.10;0.10;;;3.90;99.90;;;;;;5025103;28;20271;-60
2021/12/02 14:35:13;;;;;;;0.50;0.13;;;4.00;99.90;;;;;;5022981;28;20203;-52
2021/12/02 14:37:57;;;;;;;0.10;0.10;;;3.80;99.90;;;;;;5027356;28;20199;-52
2021/12/02 14:40:47;;;;;;;0.20;0.20;;;3.70;99.90;;;;;;5025006;28;20245;-52
2021/12/02 14:43:32;;;;;;;0.40;0.20;;;3.50;99.90;;;;;;5025384;28;20191;-55
2021/12/02 14:46:20;;;;;;;0.20;0.10;;;3.50;99.90;;;;;;5022372;28;20230;-52
2021/12/02 14:49:12;;;;;;;0.10;0.10;;;3.40;99.90;;;;;;5024924;28;20266;-51
2021/12/02 14:52:05;;;;;;;0.00;0.00;;;3.40;99.90;;;;;;5018408;28;20203;-47
2021/12/02 14:55:04;;;;;;;0.63;0.63;;;3.30;99.90;;;;;;5023281;28;20199;-48
2021/12/02 14:57:49;;;;;;;0.10;0.10;;;3.40;99.90;;;;;;5011270;28;20199;-51
2021/12/02 15:00:33;;;;;;;0.00;0.00;;;3.40;99.90;;;;;;5025272;28;20641;-50
2021/12/02 15:03:28;;;;;;;0.30;0.30;;;3.30;99.90;;;;;;5026167;28;20199;-46
2021/12/02 15:06:12;;;;;;;0.17;0.17;;;3.20;99.90;;;;;;5018870;28;20225;-49
2021/12/02 15:08:57;;;;;;;0.30;0.20;;;3.20;99.90;;;;;;5025688;28;20194;-48
2021/12/02 15:11:47;;;;;;;0.00;0.00;;;3.10;99.90;;;;;;5025532;28;20194;-48
2021/12/02 15:14:34;;;;;;;0.30;0.30;;;3.10;99.90;;;;;;5022398;28;20246;-54
2021/12/02 15:17:32;;;;;;;0.70;0.70;;;3.10;99.90;;;;;;5025028;28;20199;-48